sensor_id;sensor_type;location;lat;lon;timestamp;temperature;humidity
4056;DHT22;2043;52.184;8.690;2023-02-14T00:01:18;0.20;99.90
4056;DHT22;2043;52.184;8.690;2023-02-14T00:06:13;0.00;99.90
4056;DHT22;2043;52.184;8.690;2023-02-14T00:08:41;0.00;99.90
4056;DHT22;2043;52.184;8.690;2023-02-14T00:11:11;0.00;99.90
4056;DHT22;2043;52.184;8.690;2023-02-14T00:13:38;0.00;99.90
4056;DHT22;2043;52.184;8.690;2023-02-14T00:16:05;0.10;99.90
4056;DHT22;2043;52.184;8.690;2023-02-14T00:18:32;0.10;99.90
4056;DHT22;2043;52.184;8.690;2023-02-14T00:21:18;0.00;99.90
4056;DHT22;2043;52.184;8.690;2023-02-14T00:23:44;0.00;99.90
4056;DHT22;2043;52.184;8.690;2023-02-14T00:26:14;0.00;99.90
4056;DHT22;2043;52.184;8.690;2023-02-14T00:33:36;-0.20;99.90
4056;DHT22;2043;52.184;8.690;2023-02-14T00:36:04;-0.10;99.90
4056;DHT22;2043;52.184;8.690;2023-02-14T00:38:32;0.00;99.90
4056;DHT22;2043;52.184;8.690;2023-02-14T00:40:59;0.00;99.90
4056;DHT22;2043;52.184;8.690;2023-02-14T00:43:26;0.00;99.90
4056;DHT22;2043;52.184;8.690;2023-02-14T00:48:20;0.00;99.90
4056;DHT22;2043;52.184;8.690;2023-02-14T00:50:47;0.00;99.90
4056;DHT22;2043;52.184;8.690;2023-02-14T00:53:14;0.10;99.90
4056;DHT22;2043;52.184;8.690;2023-02-14T00:55:44;0.10;99.90
4056;DHT22;2043;52.184;8.690;2023-02-14T00:58:10;0.10;99.90
4056;DHT22;2043;52.184;8.690;2023-02-14T01:00:37;0.20;99.90
4056;DHT22;2043;52.184;8.690;2023-02-14T01:03:04;0.30;99.90
4056;DHT22;2043;52.184;8.690;2023-02-14T01:07:58;0.30;99.90
4056;DHT22;2043;52.184;8.690;2023-02-14T01:12:52;0.30;99.90
4056;DHT22;2043;52.184;8.690;2023-02-14T01:17:45;0.00;99.90
4056;DHT22;2043;52.184;8.690;2023-02-14T01:22:40;0.00;99.90
4056;DHT22;2043;52.184;8.690;2023-02-14T01:25:07;0.00;99.90
4056;DHT22;2043;52.184;8.690;2023-02-14T01:27:34;0.00;99.90
4056;DHT22;2043;52.184;8.690;2023-02-14T01:30:00;0.20;99.90
4056;DHT22;2043;52.184;8.690;2023-02-14T01:32:30;0.30;99.90
4056;DHT22;2043;52.184;8.690;2023-02-14T01:34:57;0.40;99.90
4056;DHT22;2043;52.184;8.690;2023-02-14T01:37:24;0.50;99.90
4056;DHT22;2043;52.184;8.690;2023-02-14T01:39:51;0.40;99.90
4056;DHT22;2043;52.184;8.690;2023-02-14T01:42:17;0.40;99.90
4056;DHT22;2043;52.184;8.690;2023-02-14T01:47:11;0.40;99.90
4056;DHT22;2043;52.184;8.690;2023-02-14T01:49:48;0.30;99.90
4056;DHT22;2043;52.184;8.690;2023-02-14T01:52:22;0.30;99.90
4056;DHT22;2043;52.184;8.690;2023-02-14T01:54:55;0.20;99.90
4056;DHT22;2043;52.184;8.690;2023-02-14T01:57:27;0.10;99.90
4056;DHT22;2043;52.184;8.690;2023-02-14T01:59:58;0.20;99.90
4056;DHT22;2043;52.184;8.690;2023-02-14T02:02:45;0.20;99.90
4056;DHT22;2043;52.184;8.690;2023-02-14T02:05:13;0.30;99.90
4056;DHT22;2043;52.184;8.690;2023-02-14T02:07:41;0.30;99.90
4056;DHT22;2043;52.184;8.690;2023-02-14T02:10:08;0.50;99.90
4056;DHT22;2043;52.184;8.690;2023-02-14T02:12:35;0.60;99.90
4056;DHT22;2043;52.184;8.690;2023-02-14T02:15:03;0.60;99.90
4056;DHT22;2043;52.184;8.690;2023-02-14T02:20:34;0.50;99.90
4056;DHT22;2043;52.184;8.690;2023-02-14T02:32:03;0.40;99.90
4056;DHT22;2043;52.184;8.690;2023-02-14T02:38:30;0.40;99.90
4056;DHT22;2043;52.184;8.690;2023-02-14T02:41:36;0.40;99.90
4056;DHT22;2043;52.184;8.690;2023-02-14T02:46:33;0.40;99.90
4056;DHT22;2043;52.184;8.690;2023-02-14T02:49:39;0.40;99.90
4056;DHT22;2043;52.184;8.690;2023-02-14T02:52:52;0.50;99.90
4056;DHT22;2043;52.184;8.690;2023-02-14T02:58:57;0.60;99.90
4056;DHT22;2043;52.184;8.690;2023-02-14T03:01:30;0.60;99.90
4056;DHT22;2043;52.184;8.690;2023-02-14T03:04:02;0.70;99.90
4056;DHT22;2043;52.184;8.690;2023-02-14T03:06:50;0.70;99.90
4056;DHT22;2043;52.184;8.690;2023-02-14T03:14:49;0.60;99.90
4056;DHT22;2043;52.184;8.690;2023-02-14T03:17:24;0.60;99.90
4056;DHT22;2043;52.184;8.690;2023-02-14T03:20:07;0.60;99.90
4056;DHT22;2043;52.184;8.690;2023-02-14T03:22:48;0.70;99.90
4056;DHT22;2043;52.184;8.690;2023-02-14T03:25:33;0.60;99.90
4056;DHT22;2043;52.184;8.690;2023-02-14T03:33:57;0.40;99.90
4056;DHT22;2043;52.184;8.690;2023-02-14T03:39:14;0.40;99.90
4056;DHT22;2043;52.184;8.690;2023-02-14T03:44:41;0.40;99.90
4056;DHT22;2043;52.184;8.690;2023-02-14T03:47:11;0.50;99.90
4056;DHT22;2043;52.184;8.690;2023-02-14T03:49:43;0.50;99.90
4056;DHT22;2043;52.184;8.690;2023-02-14T03:52:13;0.50;99.90
4056;DHT22;2043;52.184;8.690;2023-02-14T03:54:41;0.50;99.90
4056;DHT22;2043;52.184;8.690;2023-02-14T03:57:25;0.40;99.90
4056;DHT22;2043;52.184;8.690;2023-02-14T03:59:54;0.30;99.90
4056;DHT22;2043;52.184;8.690;2023-02-14T04:02:35;0.30;99.90
4056;DHT22;2043;52.184;8.690;2023-02-14T04:05:15;0.30;99.90
4056;DHT22;2043;52.184;8.690;2023-02-14T04:07:47;0.20;99.90
4056;DHT22;2043;52.184;8.690;2023-02-14T04:10:16;0.10;99.90
4056;DHT22;2043;52.184;8.690;2023-02-14T04:12:43;0.10;99.90
4056;DHT22;2043;52.184;8.690;2023-02-14T04:15:10;0.00;99.90
4056;DHT22;2043;52.184;8.690;2023-02-14T04:17:38;0.00;99.90
4056;DHT22;2043;52.184;8.690;2023-02-14T04:20:24;0.00;99.90
4056;DHT22;2043;52.184;8.690;2023-02-14T04:25:19;0.10;99.90
4056;DHT22;2043;52.184;8.690;2023-02-14T04:27:46;0.20;99.90
4056;DHT22;2043;52.184;8.690;2023-02-14T04:30:13;0.20;99.90
4056;DHT22;2043;52.184;8.690;2023-02-14T04:32:42;0.10;99.90
4056;DHT22;2043;52.184;8.690;2023-02-14T04:35:09;0.00;99.90
4056;DHT22;2043;52.184;8.690;2023-02-14T04:37:35;0.00;99.90
4056;DHT22;2043;52.184;8.690;2023-02-14T04:40:02;0.00;99.90
4056;DHT22;2043;52.184;8.690;2023-02-14T04:42:29;0.10;99.90
4056;DHT22;2043;52.184;8.690;2023-02-14T04:47:24;0.20;99.90
4056;DHT22;2043;52.184;8.690;2023-02-14T04:49:51;0.20;99.90
4056;DHT22;2043;52.184;8.690;2023-02-14T04:52:18;0.20;99.90
4056;DHT22;2043;52.184;8.690;2023-02-14T04:54:44;0.20;99.90
4056;DHT22;2043;52.184;8.690;2023-02-14T04:57:11;0.20;99.90
4056;DHT22;2043;52.184;8.690;2023-02-14T04:59:38;0.10;99.90
4056;DHT22;2043;52.184;8.690;2023-02-14T05:06:59;0.00;99.90
4056;DHT22;2043;52.184;8.690;2023-02-14T05:09:25;0.00;99.90
4056;DHT22;2043;52.184;8.690;2023-02-14T05:11:52;0.10;99.90
4056;DHT22;2043;52.184;8.690;2023-02-14T05:14:19;0.10;99.90
4056;DHT22;2043;52.184;8.690;2023-02-14T05:16:46;0.20;99.90
4056;DHT22;2043;52.184;8.690;2023-02-14T05:19:13;0.20;99.90
4056;DHT22;2043;52.184;8.690;2023-02-14T05:21:40;0.20;99.90
4056;DHT22;2043;52.184;8.690;2023-02-14T05:26:33;0.10;99.90
4056;DHT22;2043;52.184;8.690;2023-02-14T05:29:00;0.10;99.90
4056;DHT22;2043;52.184;8.690;2023-02-14T05:31:27;0.10;99.90
4056;DHT22;2043;52.184;8.690;2023-02-14T05:33:54;0.00;99.90
4056;DHT22;2043;52.184;8.690;2023-02-14T05:36:21;0.00;99.90
4056;DHT22;2043;52.184;8.690;2023-02-14T05:38:47;0.00;99.90
4056;DHT22;2043;52.184;8.690;2023-02-14T05:41:14;0.00;99.90
4056;DHT22;2043;52.184;8.690;2023-02-14T05:46:08;0.00;99.90
4056;DHT22;2043;52.184;8.690;2023-02-14T05:48:35;0.00;99.90
4056;DHT22;2043;52.184;8.690;2023-02-14T05:51:03;0.00;99.90
4056;DHT22;2043;52.184;8.690;2023-02-14T05:55:58;-0.10;99.90
4056;DHT22;2043;52.184;8.690;2023-02-14T05:58:24;0.00;99.90
4056;DHT22;2043;52.184;8.690;2023-02-14T06:00:51;0.00;99.90
4056;DHT22;2043;52.184;8.690;2023-02-14T06:03:18;-0.10;99.90
4056;DHT22;2043;52.184;8.690;2023-02-14T06:05:45;-0.10;99.90
4056;DHT22;2043;52.184;8.690;2023-02-14T06:08:11;-0.10;99.90
4056;DHT22;2043;52.184;8.690;2023-02-14T06:13:05;0.00;99.90
4056;DHT22;2043;52.184;8.690;2023-02-14T06:15:37;0.00;99.90
4056;DHT22;2043;52.184;8.690;2023-02-14T06:18:04;0.00;99.90
4056;DHT22;2043;52.184;8.690;2023-02-14T06:20:31;0.00;99.90
4056;DHT22;2043;52.184;8.690;2023-02-14T06:27:56;-0.10;99.90
4056;DHT22;2043;52.184;8.690;2023-02-14T06:30:23;-0.10;99.90
4056;DHT22;2043;52.184;8.690;2023-02-14T06:35:18;0.00;99.90
4056;DHT22;2043;52.184;8.690;2023-02-14T06:37:45;0.10;99.90
4056;DHT22;2043;52.184;8.690;2023-02-14T06:40:12;0.10;99.90
4056;DHT22;2043;52.184;8.690;2023-02-14T06:42:39;0.10;99.90
4056;DHT22;2043;52.184;8.690;2023-02-14T06:45:07;0.10;99.90
4056;DHT22;2043;52.184;8.690;2023-02-14T06:47:34;0.10;99.90
4056;DHT22;2043;52.184;8.690;2023-02-14T06:50:01;0.00;99.90
4056;DHT22;2043;52.184;8.690;2023-02-14T06:52:32;-0.10;99.90
4056;DHT22;2043;52.184;8.690;2023-02-14T06:54:59;-0.10;99.90
4056;DHT22;2043;52.184;8.690;2023-02-14T06:59:52;0.00;99.90
4056;DHT22;2043;52.184;8.690;2023-02-14T07:04:50;-0.10;99.90
4056;DHT22;2043;52.184;8.690;2023-02-14T07:07:17;-0.10;99.90
4056;DHT22;2043;52.184;8.690;2023-02-14T07:09:44;-0.10;99.90
4056;DHT22;2043;52.184;8.690;2023-02-14T07:12:10;0.00;99.90
4056;DHT22;2043;52.184;8.690;2023-02-14T07:14:37;0.00;99.90
4056;DHT22;2043;52.184;8.690;2023-02-14T07:19:31;-0.10;99.90
4056;DHT22;2043;52.184;8.690;2023-02-14T07:21:58;0.00;99.90
4056;DHT22;2043;52.184;8.690;2023-02-14T07:24:25;-0.10;99.90
4056;DHT22;2043;52.184;8.690;2023-02-14T07:29:19;-0.10;99.90
4056;DHT22;2043;52.184;8.690;2023-02-14T07:34:13;-0.10;99.90
4056;DHT22;2043;52.184;8.690;2023-02-14T07:36:40;-0.10;99.90
4056;DHT22;2043;52.184;8.690;2023-02-14T07:41:34;0.10;99.90
4056;DHT22;2043;52.184;8.690;2023-02-14T07:46:27;0.20;99.90
4056;DHT22;2043;52.184;8.690;2023-02-14T07:48:54;0.20;99.90
4056;DHT22;2043;52.184;8.690;2023-02-14T07:56:15;0.30;99.90
4056;DHT22;2043;52.184;8.690;2023-02-14T07:58:42;0.40;99.90
4056;DHT22;2043;52.184;8.690;2023-02-14T08:01:09;0.40;99.90
4056;DHT22;2043;52.184;8.690;2023-02-14T08:03:36;0.50;99.90
4056;DHT22;2043;52.184;8.690;2023-02-14T08:06:03;0.40;99.90
4056;DHT22;2043;52.184;8.690;2023-02-14T08:08:30;0.50;99.90
4056;DHT22;2043;52.184;8.690;2023-02-14T08:10:58;0.50;99.90
4056;DHT22;2043;52.184;8.690;2023-02-14T08:13:25;0.50;99.90
4056;DHT22;2043;52.184;8.690;2023-02-14T08:18:40;0.50;99.90
4056;DHT22;2043;52.184;8.690;2023-02-14T08:21:09;0.50;99.90
4056;DHT22;2043;52.184;8.690;2023-02-14T08:23:37;0.60;99.90
4056;DHT22;2043;52.184;8.690;2023-02-14T08:26:04;0.60;99.90
4056;DHT22;2043;52.184;8.690;2023-02-14T08:28:31;0.70;99.90
4056;DHT22;2043;52.184;8.690;2023-02-14T08:30:59;0.70;99.90
4056;DHT22;2043;52.184;8.690;2023-02-14T08:33:27;0.80;99.90
4056;DHT22;2043;52.184;8.690;2023-02-14T08:35:54;0.90;99.90
4056;DHT22;2043;52.184;8.690;2023-02-14T08:38:21;1.00;99.90
4056;DHT22;2043;52.184;8.690;2023-02-14T08:40:48;1.10;99.90
4056;DHT22;2043;52.184;8.690;2023-02-14T08:43:14;1.20;99.90
4056;DHT22;2043;52.184;8.690;2023-02-14T08:45:41;1.30;99.90
4056;DHT22;2043;52.184;8.690;2023-02-14T08:48:10;1.40;99.90
4056;DHT22;2043;52.184;8.690;2023-02-14T08:50:38;1.40;99.90
4056;DHT22;2043;52.184;8.690;2023-02-14T08:53:07;1.60;99.90
4056;DHT22;2043;52.184;8.690;2023-02-14T08:55:34;1.70;99.90
4056;DHT22;2043;52.184;8.690;2023-02-14T08:58:01;1.90;99.90
4056;DHT22;2043;52.184;8.690;2023-02-14T09:00:29;2.30;99.90
4056;DHT22;2043;52.184;8.690;2023-02-14T09:02:56;2.80;99.90
4056;DHT22;2043;52.184;8.690;2023-02-14T09:05:24;3.10;99.90
4056;DHT22;2043;52.184;8.690;2023-02-14T09:07:52;3.40;99.90
4056;DHT22;2043;52.184;8.690;2023-02-14T09:10:21;4.20;99.90
4056;DHT22;2043;52.184;8.690;2023-02-14T09:12:49;5.00;99.90
4056;DHT22;2043;52.184;8.690;2023-02-14T09:15:16;5.40;99.90
4056;DHT22;2043;52.184;8.690;2023-02-14T09:17:43;5.60;99.90
4056;DHT22;2043;52.184;8.690;2023-02-14T09:20:11;5.40;99.90
4056;DHT22;2043;52.184;8.690;2023-02-14T09:22:39;5.30;99.90
4056;DHT22;2043;52.184;8.690;2023-02-14T09:25:06;5.20;99.90
4056;DHT22;2043;52.184;8.690;2023-02-14T09:27:32;4.90;99.90
4056;DHT22;2043;52.184;8.690;2023-02-14T09:29:59;4.80;99.90
4056;DHT22;2043;52.184;8.690;2023-02-14T09:32:26;4.60;99.90
4056;DHT22;2043;52.184;8.690;2023-02-14T09:34:54;4.90;99.90
4056;DHT22;2043;52.184;8.690;2023-02-14T09:40:26;5.40;99.90
4056;DHT22;2043;52.184;8.690;2023-02-14T09:43:00;5.20;99.90
4056;DHT22;2043;52.184;8.690;2023-02-14T09:45:29;4.80;99.90
4056;DHT22;2043;52.184;8.690;2023-02-14T09:48:06;4.70;99.90
4056;DHT22;2043;52.184;8.690;2023-02-14T09:50:46;4.30;99.90
4056;DHT22;2043;52.184;8.690;2023-02-14T09:53:44;4.30;99.90
4056;DHT22;2043;52.184;8.690;2023-02-14T09:59:42;4.40;99.90
4056;DHT22;2043;52.184;8.690;2023-02-14T10:05:29;4.50;99.90
4056;DHT22;2043;52.184;8.690;2023-02-14T10:11:05;4.90;99.90
4056;DHT22;2043;52.184;8.690;2023-02-14T10:13:29;5.50;99.90
4056;DHT22;2043;52.184;8.690;2023-02-14T10:16:11;6.20;99.90
4056;DHT22;2043;52.184;8.690;2023-02-14T10:18:49;6.30;99.90
4056;DHT22;2043;52.184;8.690;2023-02-14T10:21:32;6.30;99.90
4056;DHT22;2043;52.184;8.690;2023-02-14T10:26:39;6.50;99.90
4056;DHT22;2043;52.184;8.690;2023-02-14T10:29:14;6.70;99.90
4056;DHT22;2043;52.184;8.690;2023-02-14T10:39:55;6.90;99.90
4056;DHT22;2043;52.184;8.690;2023-02-14T10:42:32;7.30;99.90
4056;DHT22;2043;52.184;8.690;2023-02-14T10:50:34;9.00;96.70
4056;DHT22;2043;52.184;8.690;2023-02-14T10:56:02;9.10;97.50
4056;DHT22;2043;52.184;8.690;2023-02-14T10:58:34;9.20;97.90
4056;DHT22;2043;52.184;8.690;2023-02-14T11:01:14;9.60;95.60
4056;DHT22;2043;52.184;8.690;2023-02-14T11:03:55;9.60;94.60
4056;DHT22;2043;52.184;8.690;2023-02-14T11:06:24;9.20;94.70
4056;DHT22;2043;52.184;8.690;2023-02-14T11:08:50;9.70;94.40
4056;DHT22;2043;52.184;8.690;2023-02-14T11:13:47;10.80;92.60
4056;DHT22;2043;52.184;8.690;2023-02-14T11:16:29;10.80;91.90
4056;DHT22;2043;52.184;8.690;2023-02-14T11:21:43;11.40;90.30
4056;DHT22;2043;52.184;8.690;2023-02-14T11:24:26;11.30;90.20
4056;DHT22;2043;52.184;8.690;2023-02-14T11:27:00;11.10;90.60
4056;DHT22;2043;52.184;8.690;2023-02-14T11:34:55;11.70;92.90
4056;DHT22;2043;52.184;8.690;2023-02-14T11:37:31;11.90;89.30
4056;DHT22;2043;52.184;8.690;2023-02-14T11:40:00;11.80;89.90
4056;DHT22;2043;52.184;8.690;2023-02-14T11:42:45;12.10;88.80
4056;DHT22;2043;52.184;8.690;2023-02-14T11:48:20;12.50;87.60
4056;DHT22;2043;52.184;8.690;2023-02-14T11:51:04;12.50;88.30
4056;DHT22;2043;52.184;8.690;2023-02-14T11:53:52;12.30;88.20
4056;DHT22;2043;52.184;8.690;2023-02-14T11:56:22;12.60;87.90
4056;DHT22;2043;52.184;8.690;2023-02-14T11:58:55;12.80;88.10
4056;DHT22;2043;52.184;8.690;2023-02-14T12:01:27;12.90;87.90
4056;DHT22;2043;52.184;8.690;2023-02-14T12:03:58;13.20;86.80
4056;DHT22;2043;52.184;8.690;2023-02-14T12:06:31;13.40;86.40
4056;DHT22;2043;52.184;8.690;2023-02-14T12:11:38;13.20;87.10
4056;DHT22;2043;52.184;8.690;2023-02-14T12:14:08;13.10;86.90
4056;DHT22;2043;52.184;8.690;2023-02-14T12:19:49;12.90;87.60
4056;DHT22;2043;52.184;8.690;2023-02-14T12:22:21;13.30;87.40
4056;DHT22;2043;52.184;8.690;2023-02-14T12:24:58;13.30;87.40
4056;DHT22;2043;52.184;8.690;2023-02-14T12:27:34;13.10;87.20
4056;DHT22;2043;52.184;8.690;2023-02-14T12:30:14;13.30;87.80
4056;DHT22;2043;52.184;8.690;2023-02-14T12:32:49;13.40;86.60
4056;DHT22;2043;52.184;8.690;2023-02-14T12:35:39;13.50;86.50
4056;DHT22;2043;52.184;8.690;2023-02-14T12:38:29;13.70;86.50
4056;DHT22;2043;52.184;8.690;2023-02-14T13:01:04;14.20;85.70
4056;DHT22;2043;52.184;8.690;2023-02-14T13:06:32;14.30;84.10
4056;DHT22;2043;52.184;8.690;2023-02-14T13:20:52;14.90;82.20
4056;DHT22;2043;52.184;8.690;2023-02-14T13:23:41;14.70;81.90
4056;DHT22;2043;52.184;8.690;2023-02-14T13:26:16;14.70;83.00
4056;DHT22;2043;52.184;8.690;2023-02-14T13:29:08;14.80;82.30
4056;DHT22;2043;52.184;8.690;2023-02-14T13:31:36;14.90;82.30
4056;DHT22;2043;52.184;8.690;2023-02-14T13:36:46;15.10;82.20
4056;DHT22;2043;52.184;8.690;2023-02-14T13:39:26;15.20;81.20
4056;DHT22;2043;52.184;8.690;2023-02-14T13:41:56;15.00;81.80
4056;DHT22;2043;52.184;8.690;2023-02-14T13:44:41;15.10;81.80
4056;DHT22;2043;52.184;8.690;2023-02-14T13:47:22;15.00;81.40
4056;DHT22;2043;52.184;8.690;2023-02-14T13:49:57;15.00;81.80
4056;DHT22;2043;52.184;8.690;2023-02-14T13:52:57;14.90;80.40
4056;DHT22;2043;52.184;8.690;2023-02-14T13:55:29;15.00;80.60
4056;DHT22;2043;52.184;8.690;2023-02-14T13:58:17;15.00;80.60
4056;DHT22;2043;52.184;8.690;2023-02-14T14:00:49;15.00;81.40
4056;DHT22;2043;52.184;8.690;2023-02-14T14:24:19;15.20;82.50
4056;DHT22;2043;52.184;8.690;2023-02-14T14:32:23;15.00;81.80
4056;DHT22;2043;52.184;8.690;2023-02-14T14:34:52;15.00;81.80
4056;DHT22;2043;52.184;8.690;2023-02-14T14:37:23;15.10;81.30
4056;DHT22;2043;52.184;8.690;2023-02-14T14:39:56;15.10;81.40
4056;DHT22;2043;52.184;8.690;2023-02-14T14:42:29;15.10;82.00
4056;DHT22;2043;52.184;8.690;2023-02-14T14:45:01;15.10;81.80
4056;DHT22;2043;52.184;8.690;2023-02-14T14:47:37;15.10;81.70
4056;DHT22;2043;52.184;8.690;2023-02-14T14:50:18;14.90;82.70
4056;DHT22;2043;52.184;8.690;2023-02-14T14:52:50;15.10;82.40
4056;DHT22;2043;52.184;8.690;2023-02-14T14:55:24;15.10;81.50
4056;DHT22;2043;52.184;8.690;2023-02-14T14:57:55;15.10;81.70
4056;DHT22;2043;52.184;8.690;2023-02-14T15:00:30;14.80;82.30
4056;DHT22;2043;52.184;8.690;2023-02-14T15:05:42;14.70;82.60
4056;DHT22;2043;52.184;8.690;2023-02-14T15:08:35;14.70;81.80
4056;DHT22;2043;52.184;8.690;2023-02-14T15:11:12;14.60;82.10
4056;DHT22;2043;52.184;8.690;2023-02-14T15:14:00;14.70;81.70
4056;DHT22;2043;52.184;8.690;2023-02-14T15:16:34;14.70;81.60
4056;DHT22;2043;52.184;8.690;2023-02-14T15:19:11;14.70;82.10
4056;DHT22;2043;52.184;8.690;2023-02-14T15:21:42;14.70;81.40
4056;DHT22;2043;52.184;8.690;2023-02-14T15:24:13;14.70;81.40
4056;DHT22;2043;52.184;8.690;2023-02-14T15:26:43;14.30;82.60
4056;DHT22;2043;52.184;8.690;2023-02-14T15:29:29;14.10;82.50
4056;DHT22;2043;52.184;8.690;2023-02-14T15:31:57;13.90;83.20
4056;DHT22;2043;52.184;8.690;2023-02-14T15:34:31;13.70;84.30
4056;DHT22;2043;52.184;8.690;2023-02-14T15:36:59;13.60;84.80
4056;DHT22;2043;52.184;8.690;2023-02-14T15:39:35;13.40;85.60
4056;DHT22;2043;52.184;8.690;2023-02-14T15:42:04;13.40;86.20
4056;DHT22;2043;52.184;8.690;2023-02-14T15:44:31;13.20;87.30
4056;DHT22;2043;52.184;8.690;2023-02-14T15:47:01;13.20;87.60
4056;DHT22;2043;52.184;8.690;2023-02-14T15:49:32;13.10;87.70
4056;DHT22;2043;52.184;8.690;2023-02-14T15:52:03;13.10;88.00
4056;DHT22;2043;52.184;8.690;2023-02-14T15:54:43;13.00;88.70
4056;DHT22;2043;52.184;8.690;2023-02-14T15:57:21;12.80;89.20
4056;DHT22;2043;52.184;8.690;2023-02-14T15:59:50;12.70;89.60
4056;DHT22;2043;52.184;8.690;2023-02-14T16:02:36;12.60;90.00
4056;DHT22;2043;52.184;8.690;2023-02-14T16:05:20;12.50;90.10
4056;DHT22;2043;52.184;8.690;2023-02-14T16:08:05;12.30;90.80
4056;DHT22;2043;52.184;8.690;2023-02-14T16:10:37;12.10;91.80
4056;DHT22;2043;52.184;8.690;2023-02-14T16:13:18;11.80;92.30
4056;DHT22;2043;52.184;8.690;2023-02-14T16:16:06;11.50;93.10
4056;DHT22;2043;52.184;8.690;2023-02-14T16:18:36;11.30;94.00
4056;DHT22;2043;52.184;8.690;2023-02-14T16:29:15;10.10;95.90
4056;DHT22;2043;52.184;8.690;2023-02-14T16:31:53;9.80;97.00
4056;DHT22;2043;52.184;8.690;2023-02-14T16:34:40;9.40;97.90
4056;DHT22;2043;52.184;8.690;2023-02-14T16:37:16;9.30;98.50
4056;DHT22;2043;52.184;8.690;2023-02-14T16:39:44;9.00;98.80
4056;DHT22;2043;52.184;8.690;2023-02-14T16:42:14;8.80;99.80
4056;DHT22;2043;52.184;8.690;2023-02-14T16:44:43;8.70;99.90
4056;DHT22;2043;52.184;8.690;2023-02-14T16:47:12;8.40;99.90
4056;DHT22;2043;52.184;8.690;2023-02-14T16:49:39;8.40;99.90
4056;DHT22;2043;52.184;8.690;2023-02-14T16:52:21;8.30;99.90
4056;DHT22;2043;52.184;8.690;2023-02-14T16:54:52;8.10;99.90
4056;DHT22;2043;52.184;8.690;2023-02-14T16:57:37;7.90;99.90
4056;DHT22;2043;52.184;8.690;2023-02-14T17:00:06;7.70;99.90
4056;DHT22;2043;52.184;8.690;2023-02-14T17:02:34;7.70;99.90
4056;DHT22;2043;52.184;8.690;2023-02-14T17:05:01;7.60;99.90
4056;DHT22;2043;52.184;8.690;2023-02-14T17:07:30;7.60;99.90
4056;DHT22;2043;52.184;8.690;2023-02-14T17:10:02;7.40;99.90
4056;DHT22;2043;52.184;8.690;2023-02-14T17:12:36;7.40;99.90
4056;DHT22;2043;52.184;8.690;2023-02-14T17:15:08;7.40;99.90
4056;DHT22;2043;52.184;8.690;2023-02-14T17:17:37;7.30;99.90
4056;DHT22;2043;52.184;8.690;2023-02-14T17:20:05;7.20;99.90
4056;DHT22;2043;52.184;8.690;2023-02-14T17:22:35;7.00;99.90
4056;DHT22;2043;52.184;8.690;2023-02-14T17:25:03;6.80;99.90
4056;DHT22;2043;52.184;8.690;2023-02-14T17:27:30;6.60;99.90
4056;DHT22;2043;52.184;8.690;2023-02-14T17:29:57;6.60;99.90
4056;DHT22;2043;52.184;8.690;2023-02-14T17:32:24;6.30;99.90
4056;DHT22;2043;52.184;8.690;2023-02-14T17:34:52;6.10;99.90
4056;DHT22;2043;52.184;8.690;2023-02-14T17:37:19;6.00;99.90
4056;DHT22;2043;52.184;8.690;2023-02-14T17:39:46;6.00;99.90
4056;DHT22;2043;52.184;8.690;2023-02-14T17:42:12;5.90;99.90
4056;DHT22;2043;52.184;8.690;2023-02-14T17:44:39;6.10;99.90
4056;DHT22;2043;52.184;8.690;2023-02-14T17:47:06;6.00;99.90
4056;DHT22;2043;52.184;8.690;2023-02-14T17:49:33;6.00;99.90
4056;DHT22;2043;52.184;8.690;2023-02-14T17:51:59;5.80;99.90
4056;DHT22;2043;52.184;8.690;2023-02-14T17:54:26;5.70;99.90
4056;DHT22;2043;52.184;8.690;2023-02-14T17:56:53;5.60;99.90
4056;DHT22;2043;52.184;8.690;2023-02-14T17:59:20;5.60;99.90
4056;DHT22;2043;52.184;8.690;2023-02-14T18:01:47;5.70;99.90
4056;DHT22;2043;52.184;8.690;2023-02-14T18:04:14;5.70;99.90
4056;DHT22;2043;52.184;8.690;2023-02-14T18:06:41;5.70;99.90
4056;DHT22;2043;52.184;8.690;2023-02-14T18:09:08;5.70;99.90
4056;DHT22;2043;52.184;8.690;2023-02-14T18:11:38;5.70;99.90
4056;DHT22;2043;52.184;8.690;2023-02-14T18:14:06;5.70;99.90
4056;DHT22;2043;52.184;8.690;2023-02-14T18:16:35;5.70;99.90
4056;DHT22;2043;52.184;8.690;2023-02-14T18:19:03;5.70;99.90
4056;DHT22;2043;52.184;8.690;2023-02-14T18:21:31;5.80;99.90
4056;DHT22;2043;52.184;8.690;2023-02-14T18:24:01;5.80;99.90
4056;DHT22;2043;52.184;8.690;2023-02-14T18:26:29;5.80;99.90
4056;DHT22;2043;52.184;8.690;2023-02-14T18:28:56;5.80;99.90
4056;DHT22;2043;52.184;8.690;2023-02-14T18:31:24;5.70;99.90
4056;DHT22;2043;52.184;8.690;2023-02-14T18:33:51;5.60;99.90
4056;DHT22;2043;52.184;8.690;2023-02-14T18:36:21;5.50;99.90
4056;DHT22;2043;52.184;8.690;2023-02-14T18:38:49;5.60;99.90
4056;DHT22;2043;52.184;8.690;2023-02-14T18:41:17;5.70;99.90
4056;DHT22;2043;52.184;8.690;2023-02-14T18:43:44;5.60;99.90
4056;DHT22;2043;52.184;8.690;2023-02-14T18:46:14;5.60;99.90
4056;DHT22;2043;52.184;8.690;2023-02-14T18:48:41;5.60;99.90
4056;DHT22;2043;52.184;8.690;2023-02-14T18:51:13;5.70;99.90
4056;DHT22;2043;52.184;8.690;2023-02-14T18:53:43;5.70;99.90
4056;DHT22;2043;52.184;8.690;2023-02-14T18:56:15;5.60;99.90
4056;DHT22;2043;52.184;8.690;2023-02-14T18:58:44;5.60;99.90
4056;DHT22;2043;52.184;8.690;2023-02-14T19:01:16;5.50;99.90
4056;DHT22;2043;52.184;8.690;2023-02-14T19:03:43;5.50;99.90
4056;DHT22;2043;52.184;8.690;2023-02-14T19:06:11;5.50;99.90
4056;DHT22;2043;52.184;8.690;2023-02-14T19:08:39;5.30;99.90
4056;DHT22;2043;52.184;8.690;2023-02-14T19:11:14;5.20;99.90
4056;DHT22;2043;52.184;8.690;2023-02-14T19:13:47;5.20;99.90
4056;DHT22;2043;52.184;8.690;2023-02-14T19:16:16;5.30;99.90
4056;DHT22;2043;52.184;8.690;2023-02-14T19:18:44;5.20;99.90
4056;DHT22;2043;52.184;8.690;2023-02-14T19:21:16;5.20;99.90
4056;DHT22;2043;52.184;8.690;2023-02-14T19:23:43;5.20;99.90
4056;DHT22;2043;52.184;8.690;2023-02-14T19:26:18;5.20;99.90
4056;DHT22;2043;52.184;8.690;2023-02-14T19:28:47;5.30;99.90
4056;DHT22;2043;52.184;8.690;2023-02-14T19:31:15;5.30;99.90
4056;DHT22;2043;52.184;8.690;2023-02-14T19:33:43;5.30;99.90
4056;DHT22;2043;52.184;8.690;2023-02-14T19:36:13;5.20;99.90
4056;DHT22;2043;52.184;8.690;2023-02-14T19:38:42;5.20;99.90
4056;DHT22;2043;52.184;8.690;2023-02-14T19:41:16;5.20;99.90
4056;DHT22;2043;52.184;8.690;2023-02-14T19:43:44;5.10;99.90
4056;DHT22;2043;52.184;8.690;2023-02-14T19:46:12;5.00;99.90
4056;DHT22;2043;52.184;8.690;2023-02-14T19:48:39;4.80;99.90
4056;DHT22;2043;52.184;8.690;2023-02-14T19:51:06;4.70;99.90
4056;DHT22;2043;52.184;8.690;2023-02-14T19:53:34;4.60;99.90
4056;DHT22;2043;52.184;8.690;2023-02-14T19:56:01;4.60;99.90
4056;DHT22;2043;52.184;8.690;2023-02-14T19:58:27;4.50;99.90
4056;DHT22;2043;52.184;8.690;2023-02-14T20:00:55;4.40;99.90
4056;DHT22;2043;52.184;8.690;2023-02-14T20:03:25;4.20;99.90
4056;DHT22;2043;52.184;8.690;2023-02-14T20:05:52;4.00;99.90
4056;DHT22;2043;52.184;8.690;2023-02-14T20:08:19;3.90;99.90
4056;DHT22;2043;52.184;8.690;2023-02-14T20:10:45;3.90;99.90
4056;DHT22;2043;52.184;8.690;2023-02-14T20:13:12;4.00;99.90
4056;DHT22;2043;52.184;8.690;2023-02-14T20:15:39;3.90;99.90
4056;DHT22;2043;52.184;8.690;2023-02-14T20:18:06;3.80;99.90
4056;DHT22;2043;52.184;8.690;2023-02-14T20:20:33;3.80;99.90
4056;DHT22;2043;52.184;8.690;2023-02-14T20:23:19;3.80;99.90
4056;DHT22;2043;52.184;8.690;2023-02-14T20:25:46;3.70;99.90
4056;DHT22;2043;52.184;8.690;2023-02-14T20:28:13;3.70;99.90
4056;DHT22;2043;52.184;8.690;2023-02-14T20:30:40;3.70;99.90
4056;DHT22;2043;52.184;8.690;2023-02-14T20:33:07;3.50;99.90
4056;DHT22;2043;52.184;8.690;2023-02-14T20:35:38;3.30;99.90
4056;DHT22;2043;52.184;8.690;2023-02-14T20:38:05;3.20;99.90